sensor_id;sensor_type;location;lat;lon;timestamp;P1;durP1;ratioP1;P2;durP2;ratioP2
70150;SDS011;57517;43.562;19.540;2024-01-30T00:01:41;70.93;;;53.67;;
70150;SDS011;57517;43.562;19.540;2024-01-30T00:04:07;75.97;;;50.80;;
70150;SDS011;57517;43.562;19.540;2024-01-30T00:06:32;62.97;;;46.80;;
70150;SDS011;57517;43.562;19.540;2024-01-30T00:08:58;61.55;;;45.60;;
70150;SDS011;57517;43.562;19.540;2024-01-30T00:11:25;63.45;;;47.67;;
70150;SDS011;57517;43.562;19.540;2024-01-30T00:13:51;61.53;;;43.70;;
70150;SDS011;57517;43.562;19.540;2024-01-30T00:16:20;59.60;;;45.50;;
70150;SDS011;57517;43.562;19.540;2024-01-30T00:18:53;71.93;;;52.03;;
70150;SDS011;57517;43.562;19.540;2024-01-30T00:21:19;65.38;;;46.40;;
70150;SDS011;57517;43.562;19.540;2024-01-30T00:23:45;64.57;;;46.17;;
70150;SDS011;57517;43.562;19.540;2024-01-30T00:26:11;58.15;;;43.45;;
70150;SDS011;57517;43.562;19.540;2024-01-30T00:28:37;57.72;;;43.22;;
70150;SDS011;57517;43.562;19.540;2024-01-30T00:31:04;63.05;;;44.95;;
70150;SDS011;57517;43.562;19.540;2024-01-30T00:33:29;52.90;;;38.80;;
70150;SDS011;57517;43.562;19.540;2024-01-30T00:35:55;54.17;;;36.42;;
70150;SDS011;57517;43.562;19.540;2024-01-30T00:38:21;53.40;;;35.63;;
70150;SDS011;57517;43.562;19.540;2024-01-30T00:40:47;48.70;;;34.67;;
70150;SDS011;57517;43.562;19.540;2024-01-30T00:43:13;57.08;;;40.88;;
70150;SDS011;57517;43.562;19.540;2024-01-30T00:45:40;60.95;;;44.75;;
70150;SDS011;57517;43.562;19.540;2024-01-30T00:48:06;74.10;;;53.90;;
70150;SDS011;57517;43.562;19.540;2024-01-30T00:50:32;91.32;;;64.10;;
70150;SDS011;57517;43.562;19.540;2024-01-30T00:52:57;88.95;;;64.07;;
70150;SDS011;57517;43.562;19.540;2024-01-30T00:55:23;65.43;;;49.40;;
70150;SDS011;57517;43.562;19.540;2024-01-30T00:57:49;65.15;;;44.65;;
70150;SDS011;57517;43.562;19.540;2024-01-30T01:00:15;53.03;;;40.95;;
70150;SDS011;57517;43.562;19.540;2024-01-30T01:02:46;54.75;;;40.90;;
70150;SDS011;57517;43.562;19.540;2024-01-30T01:05:12;51.35;;;36.80;;
70150;SDS011;57517;43.562;19.540;2024-01-30T01:07:37;56.35;;;41.42;;
70150;SDS011;57517;43.562;19.540;2024-01-30T01:10:05;58.90;;;44.38;;
70150;SDS011;57517;43.562;19.540;2024-01-30T01:12:31;64.53;;;48.55;;
70150;SDS011;57517;43.562;19.540;2024-01-30T01:14:57;59.05;;;43.95;;
70150;SDS011;57517;43.562;19.540;2024-01-30T01:17:22;53.22;;;37.25;;
70150;SDS011;57517;43.562;19.540;2024-01-30T01:19:48;54.20;;;36.17;;
70150;SDS011;57517;43.562;19.540;2024-01-30T01:22:15;55.67;;;40.70;;
70150;SDS011;57517;43.562;19.540;2024-01-30T01:24:43;61.40;;;42.78;;
70150;SDS011;57517;43.562;19.540;2024-01-30T01:27:09;54.08;;;39.03;;
70150;SDS011;57517;43.562;19.540;2024-01-30T01:29:35;63.83;;;44.97;;
70150;SDS011;57517;43.562;19.540;2024-01-30T01:32:01;71.90;;;51.92;;
70150;SDS011;57517;43.562;19.540;2024-01-30T01:34:27;68.75;;;47.30;;
70150;SDS011;57517;43.562;19.540;2024-01-30T01:36:52;62.88;;;44.22;;
70150;SDS011;57517;43.562;19.540;2024-01-30T01:39:20;55.85;;;38.45;;
70150;SDS011;57517;43.562;19.540;2024-01-30T01:41:48;55.67;;;38.08;;
70150;SDS011;57517;43.562;19.540;2024-01-30T01:44:14;59.05;;;39.58;;
70150;SDS011;57517;43.562;19.540;2024-01-30T01:46:40;50.10;;;37.35;;
70150;SDS011;57517;43.562;19.540;2024-01-30T01:49:06;50.38;;;35.22;;
70150;SDS011;57517;43.562;19.540;2024-01-30T01:51:33;45.35;;;33.85;;
70150;SDS011;57517;43.562;19.540;2024-01-30T01:54:03;55.92;;;35.67;;
70150;SDS011;57517;43.562;19.540;2024-01-30T01:56:30;45.75;;;30.88;;
70150;SDS011;57517;43.562;19.540;2024-01-30T01:59:04;35.78;;;27.25;;
70150;SDS011;57517;43.562;19.540;2024-01-30T02:01:37;34.40;;;25.77;;
70150;SDS011;57517;43.562;19.540;2024-01-30T02:04:06;37.05;;;28.20;;
70150;SDS011;57517;43.562;19.540;2024-01-30T02:06:33;37.15;;;29.30;;
70150;SDS011;57517;43.562;19.540;2024-01-30T02:09:02;44.30;;;31.35;;
70150;SDS011;57517;43.562;19.540;2024-01-30T02:11:29;44.03;;;33.10;;
70150;SDS011;57517;43.562;19.540;2024-01-30T02:13:55;48.30;;;34.92;;
70150;SDS011;57517;43.562;19.540;2024-01-30T02:16:21;47.03;;;34.17;;
70150;SDS011;57517;43.562;19.540;2024-01-30T02:18:47;41.42;;;29.17;;
70150;SDS011;57517;43.562;19.540;2024-01-30T02:21:16;39.25;;;28.48;;
70150;SDS011;57517;43.562;19.540;2024-01-30T02:23:43;38.85;;;26.65;;
70150;SDS011;57517;43.562;19.540;2024-01-30T02:26:09;39.90;;;27.67;;
70150;SDS011;57517;43.562;19.540;2024-01-30T02:28:37;39.67;;;28.27;;
70150;SDS011;57517;43.562;19.540;2024-01-30T02:31:03;42.17;;;28.90;;
70150;SDS011;57517;43.562;19.540;2024-01-30T02:33:29;42.65;;;30.20;;
70150;SDS011;57517;43.562;19.540;2024-01-30T02:35:55;45.55;;;33.00;;
70150;SDS011;57517;43.562;19.540;2024-01-30T02:38:21;47.50;;;34.42;;
70150;SDS011;57517;43.562;19.540;2024-01-30T02:40:48;43.72;;;31.33;;
70150;SDS011;57517;43.562;19.540;2024-01-30T02:43:14;40.00;;;28.50;;
70150;SDS011;57517;43.562;19.540;2024-01-30T02:45:40;38.80;;;26.88;;
70150;SDS011;57517;43.562;19.540;2024-01-30T02:48:06;33.85;;;25.63;;
70150;SDS011;57517;43.562;19.540;2024-01-30T02:50:32;34.75;;;25.50;;
70150;SDS011;57517;43.562;19.540;2024-01-30T02:52:58;38.13;;;25.20;;
70150;SDS011;57517;43.562;19.540;2024-01-30T02:55:24;35.70;;;24.10;;
70150;SDS011;57517;43.562;19.540;2024-01-30T02:57:49;31.50;;;21.08;;
70150;SDS011;57517;43.562;19.540;2024-01-30T03:00:15;28.10;;;19.92;;
70150;SDS011;57517;43.562;19.540;2024-01-30T03:02:41;26.35;;;19.30;;
70150;SDS011;57517;43.562;19.540;2024-01-30T03:05:07;21.83;;;16.20;;
70150;SDS011;57517;43.562;19.540;2024-01-30T03:07:33;23.20;;;15.95;;
70150;SDS011;57517;43.562;19.540;2024-01-30T03:09:59;21.75;;;15.57;;
70150;SDS011;57517;43.562;19.540;2024-01-30T03:12:25;27.15;;;16.63;;
70150;SDS011;57517;43.562;19.540;2024-01-30T03:14:50;21.83;;;16.05;;
70150;SDS011;57517;43.562;19.540;2024-01-30T03:17:16;24.08;;;17.58;;
70150;SDS011;57517;43.562;19.540;2024-01-30T03:19:42;26.35;;;17.50;;
70150;SDS011;57517;43.562;19.540;2024-01-30T03:22:08;24.17;;;17.80;;
70150;SDS011;57517;43.562;19.540;2024-01-30T03:24:34;29.40;;;19.52;;
70150;SDS011;57517;43.562;19.540;2024-01-30T03:27:00;30.90;;;21.50;;
70150;SDS011;57517;43.562;19.540;2024-01-30T03:29:26;36.92;;;24.65;;
70150;SDS011;57517;43.562;19.540;2024-01-30T03:31:52;41.38;;;28.58;;
70150;SDS011;57517;43.562;19.540;2024-01-30T03:34:18;38.88;;;28.42;;
70150;SDS011;57517;43.562;19.540;2024-01-30T03:36:43;40.45;;;29.50;;
70150;SDS011;57517;43.562;19.540;2024-01-30T03:39:09;35.53;;;26.50;;
70150;SDS011;57517;43.562;19.540;2024-01-30T03:41:35;39.72;;;26.85;;
70150;SDS011;57517;43.562;19.540;2024-01-30T03:44:01;41.22;;;26.85;;
70150;SDS011;57517;43.562;19.540;2024-01-30T03:46:27;32.67;;;24.90;;
70150;SDS011;57517;43.562;19.540;2024-01-30T03:48:53;34.70;;;23.67;;
70150;SDS011;57517;43.562;19.540;2024-01-30T03:51:18;31.88;;;23.10;;
70150;SDS011;57517;43.562;19.540;2024-01-30T03:53:44;34.50;;;24.98;;
70150;SDS011;57517;43.562;19.540;2024-01-30T03:56:13;32.40;;;23.08;;
70150;SDS011;57517;43.562;19.540;2024-01-30T03:58:39;37.47;;;25.08;;
70150;SDS011;57517;43.562;19.540;2024-01-30T04:01:05;36.13;;;27.95;;
70150;SDS011;57517;43.562;19.540;2024-01-30T04:03:30;41.45;;;28.83;;
70150;SDS011;57517;43.562;19.540;2024-01-30T04:05:56;38.65;;;25.73;;
70150;SDS011;57517;43.562;19.540;2024-01-30T04:08:22;40.35;;;27.95;;
70150;SDS011;57517;43.562;19.540;2024-01-30T04:10:48;45.75;;;28.65;;
70150;SDS011;57517;43.562;19.540;2024-01-30T04:13:14;37.50;;;27.90;;
70150;SDS011;57517;43.562;19.540;2024-01-30T04:15:40;34.70;;;23.65;;
70150;SDS011;57517;43.562;19.540;2024-01-30T04:18:06;26.30;;;19.60;;
70150;SDS011;57517;43.562;19.540;2024-01-30T04:20:32;24.40;;;18.73;;
70150;SDS011;57517;43.562;19.540;2024-01-30T04:22:58;27.70;;;18.50;;
70150;SDS011;57517;43.562;19.540;2024-01-30T04:25:23;28.98;;;19.40;;
70150;SDS011;57517;43.562;19.540;2024-01-30T04:27:49;24.13;;;17.83;;
70150;SDS011;57517;43.562;19.540;2024-01-30T04:30:15;25.35;;;16.73;;
70150;SDS011;57517;43.562;19.540;2024-01-30T04:32:41;26.75;;;18.38;;
70150;SDS011;57517;43.562;19.540;2024-01-30T04:35:06;26.35;;;19.50;;
70150;SDS011;57517;43.562;19.540;2024-01-30T04:37:32;32.40;;;22.30;;
70150;SDS011;57517;43.562;19.540;2024-01-30T04:39:58;32.08;;;23.45;;
70150;SDS011;57517;43.562;19.540;2024-01-30T04:42:24;32.72;;;24.02;;
70150;SDS011;57517;43.562;19.540;2024-01-30T04:44:50;40.40;;;27.30;;
70150;SDS011;57517;43.562;19.540;2024-01-30T04:47:16;32.83;;;23.17;;
70150;SDS011;57517;43.562;19.540;2024-01-30T04:49:42;31.23;;;22.85;;
70150;SDS011;57517;43.562;19.540;2024-01-30T04:52:08;33.67;;;22.60;;
70150;SDS011;57517;43.562;19.540;2024-01-30T04:54:34;57.85;;;38.65;;
70150;SDS011;57517;43.562;19.540;2024-01-30T04:57:01;62.30;;;41.47;;
70150;SDS011;57517;43.562;19.540;2024-01-30T04:59:27;44.38;;;28.63;;
70150;SDS011;57517;43.562;19.540;2024-01-30T05:01:53;37.08;;;23.83;;
70150;SDS011;57517;43.562;19.540;2024-01-30T05:04:19;31.63;;;23.13;;
70150;SDS011;57517;43.562;19.540;2024-01-30T05:06:45;31.58;;;25.80;;
70150;SDS011;57517;43.562;19.540;2024-01-30T05:09:11;33.47;;;25.02;;
70150;SDS011;57517;43.562;19.540;2024-01-30T05:11:40;37.22;;;23.20;;
70150;SDS011;57517;43.562;19.540;2024-01-30T05:14:06;38.72;;;25.90;;
70150;SDS011;57517;43.562;19.540;2024-01-30T05:16:32;50.13;;;30.52;;
70150;SDS011;57517;43.562;19.540;2024-01-30T05:18:58;43.35;;;30.52;;
70150;SDS011;57517;43.562;19.540;2024-01-30T05:21:24;43.03;;;31.80;;
70150;SDS011;57517;43.562;19.540;2024-01-30T05:23:50;46.72;;;30.38;;
70150;SDS011;57517;43.562;19.540;2024-01-30T05:26:16;39.33;;;26.88;;
70150;SDS011;57517;43.562;19.540;2024-01-30T05:28:43;37.08;;;23.15;;
70150;SDS011;57517;43.562;19.540;2024-01-30T05:31:11;35.33;;;25.98;;
70150;SDS011;57517;43.562;19.540;2024-01-30T05:33:37;38.58;;;24.50;;
70150;SDS011;57517;43.562;19.540;2024-01-30T05:36:03;40.78;;;27.77;;
70150;SDS011;57517;43.562;19.540;2024-01-30T05:38:29;47.55;;;29.88;;
70150;SDS011;57517;43.562;19.540;2024-01-30T05:40:58;49.38;;;32.35;;
70150;SDS011;57517;43.562;19.540;2024-01-30T05:43:24;46.85;;;34.22;;
70150;SDS011;57517;43.562;19.540;2024-01-30T05:45:50;57.83;;;35.42;;
70150;SDS011;57517;43.562;19.540;2024-01-30T05:48:17;49.25;;;34.72;;
70150;SDS011;57517;43.562;19.540;2024-01-30T05:50:43;47.25;;;29.27;;
70150;SDS011;57517;43.562;19.540;2024-01-30T05:53:08;44.08;;;29.00;;
70150;SDS011;57517;43.562;19.540;2024-01-30T05:55:34;44.00;;;29.90;;
70150;SDS011;57517;43.562;19.540;2024-01-30T05:58:00;47.90;;;29.85;;
70150;SDS011;57517;43.562;19.540;2024-01-30T06:00:26;46.53;;;29.38;;
70150;SDS011;57517;43.562;19.540;2024-01-30T06:02:52;48.97;;;31.45;;
70150;SDS011;57517;43.562;19.540;2024-01-30T06:05:18;47.50;;;32.20;;
70150;SDS011;57517;43.562;19.540;2024-01-30T06:07:43;50.50;;;31.50;;
70150;SDS011;57517;43.562;19.540;2024-01-30T06:10:09;44.60;;;29.67;;
70150;SDS011;57517;43.562;19.540;2024-01-30T06:12:35;48.58;;;28.85;;
70150;SDS011;57517;43.562;19.540;2024-01-30T06:15:01;43.80;;;26.75;;
70150;SDS011;57517;43.562;19.540;2024-01-30T06:17:27;44.42;;;28.00;;
70150;SDS011;57517;43.562;19.540;2024-01-30T06:19:53;45.75;;;30.15;;
70150;SDS011;57517;43.562;19.540;2024-01-30T06:22:19;51.33;;;35.15;;
70150;SDS011;57517;43.562;19.540;2024-01-30T06:24:45;52.97;;;36.05;;
70150;SDS011;57517;43.562;19.540;2024-01-30T06:27:13;77.85;;;46.10;;
70150;SDS011;57517;43.562;19.540;2024-01-30T06:29:39;74.70;;;48.45;;
70150;SDS011;57517;43.562;19.540;2024-01-30T06:32:05;73.78;;;47.97;;
70150;SDS011;57517;43.562;19.540;2024-01-30T06:34:31;71.65;;;46.33;;
70150;SDS011;57517;43.562;19.540;2024-01-30T06:36:57;81.20;;;50.95;;
70150;SDS011;57517;43.562;19.540;2024-01-30T06:39:23;75.78;;;48.47;;
70150;SDS011;57517;43.562;19.540;2024-01-30T06:41:48;73.13;;;43.00;;
70150;SDS011;57517;43.562;19.540;2024-01-30T06:44:14;57.40;;;35.95;;
70150;SDS011;57517;43.562;19.540;2024-01-30T06:46:40;55.03;;;36.17;;
70150;SDS011;57517;43.562;19.540;2024-01-30T06:49:06;52.22;;;35.08;;
70150;SDS011;57517;43.562;19.540;2024-01-30T06:51:33;68.78;;;45.20;;
70150;SDS011;57517;43.562;19.540;2024-01-30T06:53:59;85.55;;;51.95;;
70150;SDS011;57517;43.562;19.540;2024-01-30T06:56:25;72.78;;;47.78;;
70150;SDS011;57517;43.562;19.540;2024-01-30T06:58:50;70.68;;;45.45;;
70150;SDS011;57517;43.562;19.540;2024-01-30T07:01:16;238.48;;;149.48;;
70150;SDS011;57517;43.562;19.540;2024-01-30T07:03:42;114.13;;;73.82;;
70150;SDS011;57517;43.562;19.540;2024-01-30T07:06:08;113.13;;;69.45;;
70150;SDS011;57517;43.562;19.540;2024-01-30T07:08:36;154.88;;;102.28;;
70150;SDS011;57517;43.562;19.540;2024-01-30T07:11:04;128.98;;;84.93;;
70150;SDS011;57517;43.562;19.540;2024-01-30T07:13:31;164.93;;;105.32;;
70150;SDS011;57517;43.562;19.540;2024-01-30T07:15:57;99.68;;;62.13;;
70150;SDS011;57517;43.562;19.540;2024-01-30T07:18:23;161.02;;;110.63;;
70150;SDS011;57517;43.562;19.540;2024-01-30T07:20:48;129.07;;;81.57;;
70150;SDS011;57517;43.562;19.540;2024-01-30T07:23:15;96.72;;;65.45;;
70150;SDS011;57517;43.562;19.540;2024-01-30T07:25:45;169.88;;;140.30;;
70150;SDS011;57517;43.562;19.540;2024-01-30T07:28:14;125.07;;;86.75;;
70150;SDS011;57517;43.562;19.540;2024-01-30T07:30:42;94.20;;;59.00;;
70150;SDS011;57517;43.562;19.540;2024-01-30T07:33:08;91.18;;;56.85;;
70150;SDS011;57517;43.562;19.540;2024-01-30T07:35:34;94.25;;;58.50;;
70150;SDS011;57517;43.562;19.540;2024-01-30T07:38:00;89.95;;;55.25;;
70150;SDS011;57517;43.562;19.540;2024-01-30T07:40:26;96.03;;;57.20;;
70150;SDS011;57517;43.562;19.540;2024-01-30T07:42:53;101.90;;;61.85;;
70150;SDS011;57517;43.562;19.540;2024-01-30T07:45:19;103.15;;;64.57;;
70150;SDS011;57517;43.562;19.540;2024-01-30T07:47:49;107.70;;;64.70;;
70150;SDS011;57517;43.562;19.540;2024-01-30T07:50:15;91.95;;;58.28;;
70150;SDS011;57517;43.562;19.540;2024-01-30T07:52:42;99.80;;;63.90;;
70150;SDS011;57517;43.562;19.540;2024-01-30T07:55:08;103.28;;;63.30;;
70150;SDS011;57517;43.562;19.540;2024-01-30T07:57:34;100.68;;;63.47;;
70150;SDS011;57517;43.562;19.540;2024-01-30T08:00:00;105.82;;;61.50;;
70150;SDS011;57517;43.562;19.540;2024-01-30T08:02:27;92.45;;;61.15;;
70150;SDS011;57517;43.562;19.540;2024-01-30T08:04:53;111.22;;;66.90;;
70150;SDS011;57517;43.562;19.540;2024-01-30T08:07:19;111.20;;;70.65;;
70150;SDS011;57517;43.562;19.540;2024-01-30T08:09:47;131.23;;;78.72;;
70150;SDS011;57517;43.562;19.540;2024-01-30T08:12:12;116.18;;;73.88;;
70150;SDS011;57517;43.562;19.540;2024-01-30T08:14:38;120.35;;;74.90;;
70150;SDS011;57517;43.562;19.540;2024-01-30T08:17:06;114.25;;;67.88;;
70150;SDS011;57517;43.562;19.540;2024-01-30T08:19:32;118.68;;;76.40;;
70150;SDS011;57517;43.562;19.540;2024-01-30T08:21:58;123.90;;;79.00;;
70150;SDS011;57517;43.562;19.540;2024-01-30T08:24:24;133.25;;;81.72;;
70150;SDS011;57517;43.562;19.540;2024-01-30T08:26:50;111.80;;;73.18;;
70150;SDS011;57517;43.562;19.540;2024-01-30T08:29:16;100.00;;;66.00;;
70150;SDS011;57517;43.562;19.540;2024-01-30T08:31:41;112.70;;;71.13;;
70150;SDS011;57517;43.562;19.540;2024-01-30T08:34:07;119.82;;;78.38;;
70150;SDS011;57517;43.562;19.540;2024-01-30T08:36:33;127.65;;;80.18;;
70150;SDS011;57517;43.562;19.540;2024-01-30T08:38:59;123.65;;;87.57;;
70150;SDS011;57517;43.562;19.540;2024-01-30T08:41:25;111.55;;;79.85;;
70150;SDS011;57517;43.562;19.540;2024-01-30T08:43:51;117.90;;;84.07;;
70150;SDS011;57517;43.562;19.540;2024-01-30T08:46:18;100.78;;;76.97;;
70150;SDS011;57517;43.562;19.540;2024-01-30T08:48:44;122.47;;;90.60;;
70150;SDS011;57517;43.562;19.540;2024-01-30T08:51:10;112.78;;;85.07;;
70150;SDS011;57517;43.562;19.540;2024-01-30T08:53:36;100.95;;;80.07;;
70150;SDS011;57517;43.562;19.540;2024-01-30T08:56:02;101.35;;;82.32;;
70150;SDS011;57517;43.562;19.540;2024-01-30T08:58:29;93.25;;;78.30;;
70150;SDS011;57517;43.562;19.540;2024-01-30T09:00:55;90.45;;;75.82;;
70150;SDS011;57517;43.562;19.540;2024-01-30T09:03:21;103.97;;;81.13;;
70150;SDS011;57517;43.562;19.540;2024-01-30T09:05:47;91.40;;;71.95;;
70150;SDS011;57517;43.562;19.540;2024-01-30T09:08:12;77.40;;;66.22;;
70150;SDS011;57517;43.562;19.540;2024-01-30T09:10:38;77.93;;;66.22;;
70150;SDS011;57517;43.562;19.540;2024-01-30T09:13:04;84.28;;;67.38;;
70150;SDS011;57517;43.562;19.540;2024-01-30T09:15:30;75.20;;;62.13;;
70150;SDS011;57517;43.562;19.540;2024-01-30T09:17:55;67.07;;;57.05;;
70150;SDS011;57517;43.562;19.540;2024-01-30T09:20:21;69.72;;;56.63;;
70150;SDS011;57517;43.562;19.540;2024-01-30T09:22:48;66.35;;;56.90;;
70150;SDS011;57517;43.562;19.540;2024-01-30T09:25:14;83.32;;;68.90;;
70150;SDS011;57517;43.562;19.540;2024-01-30T09:27:40;82.95;;;72.88;;
70150;SDS011;57517;43.562;19.540;2024-01-30T09:30:06;82.70;;;67.93;;
70150;SDS011;57517;43.562;19.540;2024-01-30T09:32:32;90.78;;;72.35;;
70150;SDS011;57517;43.562;19.540;2024-01-30T09:34:58;81.35;;;70.55;;
70150;SDS011;57517;43.562;19.540;2024-01-30T09:37:24;79.60;;;69.10;;
70150;SDS011;57517;43.562;19.540;2024-01-30T09:39:50;96.15;;;80.53;;
70150;SDS011;57517;43.562;19.540;2024-01-30T09:45:01;84.47;;;73.35;;
70150;SDS011;57517;43.562;19.540;2024-01-30T09:47:40;74.00;;;65.97;;
70150;SDS011;57517;43.562;19.540;2024-01-30T09:50:08;72.07;;;63.97;;
70150;SDS011;57517;43.562;19.540;2024-01-30T09:52:35;67.15;;;59.50;;
70150;SDS011;57517;43.562;19.540;2024-01-30T09:55:01;57.42;;;50.42;;
70150;SDS011;57517;43.562;19.540;2024-01-30T09:57:27;56.42;;;50.40;;
70150;SDS011;57517;43.562;19.540;2024-01-30T09:59:53;52.47;;;46.72;;
70150;SDS011;57517;43.562;19.540;2024-01-30T10:02:19;43.53;;;39.10;;
70150;SDS011;57517;43.562;19.540;2024-01-30T10:04:52;44.05;;;39.38;;
70150;SDS011;57517;43.562;19.540;2024-01-30T10:07:18;31.23;;;27.83;;
70150;SDS011;57517;43.562;19.540;2024-01-30T10:09:45;20.40;;;18.30;;
70150;SDS011;57517;43.562;19.540;2024-01-30T10:12:11;26.00;;;23.40;;
70150;SDS011;57517;43.562;19.540;2024-01-30T10:14:41;34.75;;;31.23;;
70150;SDS011;57517;43.562;19.540;2024-01-30T10:17:08;32.85;;;29.40;;
70150;SDS011;57517;43.562;19.540;2024-01-30T10:19:35;32.22;;;28.77;;
70150;SDS011;57517;43.562;19.540;2024-01-30T10:22:01;36.72;;;33.03;;
70150;SDS011;57517;43.562;19.540;2024-01-30T10:24:30;40.45;;;36.25;;
70150;SDS011;57517;43.562;19.540;2024-01-30T10:26:58;42.17;;;37.70;;
70150;SDS011;57517;43.562;19.540;2024-01-30T10:29:24;39.22;;;35.08;;
70150;SDS011;57517;43.562;19.540;2024-01-30T10:34:25;35.53;;;31.92;;
70150;SDS011;57517;43.562;19.540;2024-01-30T10:36:51;36.08;;;32.30;;
70150;SDS011;57517;43.562;19.540;2024-01-30T10:39:43;34.17;;;30.67;;
70150;SDS011;57517;43.562;19.540;2024-01-30T10:42:13;31.10;;;27.83;;
70150;SDS011;57517;43.562;19.540;2024-01-30T10:44:54;26.67;;;22.88;;
70150;SDS011;57517;43.562;19.540;2024-01-30T10:47:26;26.67;;;23.88;;
70150;SDS011;57517;43.562;19.540;2024-01-30T10:49:56;25.13;;;22.42;;
70150;SDS011;57517;43.562;19.540;2024-01-30T10:52:23;24.30;;;20.92;;
70150;SDS011;57517;43.562;19.540;2024-01-30T10:54:54;23.30;;;20.80;;
70150;SDS011;57517;43.562;19.540;2024-01-30T10:57:23;24.05;;;21.55;;
70150;SDS011;57517;43.562;19.540;2024-01-30T10:59:49;25.30;;;22.70;;
70150;SDS011;57517;43.562;19.540;2024-01-30T11:02:18;24.25;;;21.65;;
70150;SDS011;57517;43.562;19.540;2024-01-30T11:04:45;25.15;;;22.45;;
70150;SDS011;57517;43.562;19.540;2024-01-30T11:07:14;27.55;;;24.65;;
70150;SDS011;57517;43.562;19.540;2024-01-30T11:09:52;23.95;;;21.52;;
70150;SDS011;57517;43.562;19.540;2024-01-30T11:12:22;24.30;;;21.73;;
70150;SDS011;57517;43.562;19.540;2024-01-30T11:15:07;22.88;;;20.52;;
70150;SDS011;57517;43.562;19.540;2024-01-30T11:17:50;18.38;;;16.52;;
70150;SDS011;57517;43.562;19.540;2024-01-30T11:20:20;21.73;;;19.42;;
70150;SDS011;57517;43.562;19.540;2024-01-30T11:22:48;22.73;;;20.33;;
70150;SDS011;57517;43.562;19.540;2024-01-30T11:25:16;17.15;;;14.45;;
70150;SDS011;57517;43.562;19.540;2024-01-30T11:27:43;17.05;;;15.35;;
70150;SDS011;57517;43.562;19.540;2024-01-30T11:30:10;19.25;;;16.33;;
70150;SDS011;57517;43.562;19.540;2024-01-30T11:32:45;20.02;;;16.98;;
70150;SDS011;57517;43.562;19.540;2024-01-30T11:35:11;20.35;;;16.35;;
70150;SDS011;57517;43.562;19.540;2024-01-30T11:37:37;16.88;;;15.15;;
70150;SDS011;57517;43.562;19.540;2024-01-30T11:40:04;19.33;;;16.50;;
70150;SDS011;57517;43.562;19.540;2024-01-30T11:42:31;19.83;;;17.63;;
70150;SDS011;57517;43.562;19.540;2024-01-30T11:44:59;22.85;;;17.58;;
70150;SDS011;57517;43.562;19.540;2024-01-30T11:47:26;17.88;;;15.20;;
70150;SDS011;57517;43.562;19.540;2024-01-30T11:49:53;20.02;;;14.95;;
70150;SDS011;57517;43.562;19.540;2024-01-30T11:52:19;19.75;;;16.50;;
70150;SDS011;57517;43.562;19.540;2024-01-30T11:54:45;23.48;;;18.55;;
70150;SDS011;57517;43.562;19.540;2024-01-30T11:57:11;16.50;;;13.23;;
70150;SDS011;57517;43.562;19.540;2024-01-30T11:59:36;17.90;;;14.65;;
70150;SDS011;57517;43.562;19.540;2024-01-30T12:02:02;17.08;;;13.15;;
70150;SDS011;57517;43.562;19.540;2024-01-30T12:04:29;14.25;;;10.68;;
70150;SDS011;57517;43.562;19.540;2024-01-30T12:06:54;14.32;;;11.85;;
70150;SDS011;57517;43.562;19.540;2024-01-30T12:09:21;18.02;;;12.15;;
70150;SDS011;57517;43.562;19.540;2024-01-30T12:11:47;17.65;;;12.93;;
70150;SDS011;57517;43.562;19.540;2024-01-30T12:14:13;12.88;;;9.75;;
70150;SDS011;57517;43.562;19.540;2024-01-30T12:16:40;12.80;;;9.80;;
70150;SDS011;57517;43.562;19.540;2024-01-30T12:19:09;15.13;;;10.77;;
70150;SDS011;57517;43.562;19.540;2024-01-30T12:21:35;15.85;;;10.82;;
70150;SDS011;57517;43.562;19.540;2024-01-30T12:24:01;15.30;;;12.00;;
70150;SDS011;57517;43.562;19.540;2024-01-30T12:26:27;14.55;;;11.23;;
70150;SDS011;57517;43.562;19.540;2024-01-30T12:28:54;14.43;;;10.93;;
70150;SDS011;57517;43.562;19.540;2024-01-30T12:31:31;30.13;;;19.33;;
70150;SDS011;57517;43.562;19.540;2024-01-30T12:33:59;30.33;;;21.20;;
70150;SDS011;57517;43.562;19.540;2024-01-30T12:36:25;22.90;;;16.10;;
70150;SDS011;57517;43.562;19.540;2024-01-30T12:38:51;17.30;;;13.98;;
70150;SDS011;57517;43.562;19.540;2024-01-30T12:41:17;17.08;;;13.82;;
70150;SDS011;57517;43.562;19.540;2024-01-30T12:43:45;21.65;;;16.42;;
70150;SDS011;57517;43.562;19.540;2024-01-30T12:46:12;20.58;;;15.05;;
70150;SDS011;57517;43.562;19.540;2024-01-30T12:48:38;20.92;;;16.08;;
70150;SDS011;57517;43.562;19.540;2024-01-30T12:51:04;18.67;;;14.23;;
70150;SDS011;57517;43.562;19.540;2024-01-30T12:53:30;19.15;;;15.43;;
70150;SDS011;57517;43.562;19.540;2024-01-30T12:55:56;19.38;;;15.32;;
70150;SDS011;57517;43.562;19.540;2024-01-30T12:58:21;20.55;;;14.60;;
70150;SDS011;57517;43.562;19.540;2024-01-30T13:00:47;21.40;;;15.27;;
70150;SDS011;57517;43.562;19.540;2024-01-30T13:03:13;21.00;;;14.10;;
70150;SDS011;57517;43.562;19.540;2024-01-30T13:05:39;16.90;;;13.70;;
70150;SDS011;57517;43.562;19.540;2024-01-30T13:08:05;20.23;;;14.77;;
70150;SDS011;57517;43.562;19.540;2024-01-30T13:10:31;20.45;;;14.63;;
70150;SDS011;57517;43.562;19.540;2024-01-30T13:12:56;19.60;;;14.32;;
70150;SDS011;57517;43.562;19.540;2024-01-30T13:15:22;22.00;;;15.95;;
70150;SDS011;57517;43.562;19.540;2024-01-30T13:17:48;20.20;;;14.88;;
70150;SDS011;57517;43.562;19.540;2024-01-30T13:20:15;22.92;;;16.75;;
70150;SDS011;57517;43.562;19.540;2024-01-30T13:22:46;20.33;;;15.88;;
70150;SDS011;57517;43.562;19.540;2024-01-30T13:25:14;17.27;;;14.18;;
70150;SDS011;57517;43.562;19.540;2024-01-30T13:27:40;19.92;;;13.50;;
70150;SDS011;57517;43.562;19.540;2024-01-30T13:30:06;20.70;;;15.07;;
70150;SDS011;57517;43.562;19.540;2024-01-30T13:32:34;22.90;;;16.63;;
70150;SDS011;57517;43.562;19.540;2024-01-30T13:35:00;18.65;;;14.20;;
70150;SDS011;57517;43.562;19.540;2024-01-30T13:37:26;16.42;;;12.32;;
70150;SDS011;57517;43.562;19.540;2024-01-30T13:39:52;20.88;;;15.45;;
70150;SDS011;57517;43.562;19.540;2024-01-30T13:42:18;28.95;;;19.92;;
70150;SDS011;57517;43.562;19.540;2024-01-30T13:44:44;26.98;;;20.02;;
70150;SDS011;57517;43.562;19.540;2024-01-30T13:47:09;29.92;;;22.17;;
70150;SDS011;57517;43.562;19.540;2024-01-30T13:49:35;37.75;;;28.58;;
70150;SDS011;57517;43.562;19.540;2024-01-30T13:52:01;30.63;;;25.35;;
70150;SDS011;57517;43.562;19.540;2024-01-30T13:54:28;22.65;;;17.88;;
70150;SDS011;57517;43.562;19.540;2024-01-30T13:56:55;22.05;;;17.58;;
70150;SDS011;57517;43.562;19.540;2024-01-30T13:59:21;26.27;;;20.55;;
70150;SDS011;57517;43.562;19.540;2024-01-30T14:01:49;26.40;;;20.70;;
70150;SDS011;57517;43.562;19.540;2024-01-30T14:04:16;20.02;;;16.80;;
70150;SDS011;57517;43.562;19.540;2024-01-30T14:06:42;22.88;;;17.98;;
70150;SDS011;57517;43.562;19.540;2024-01-30T14:09:08;27.50;;;21.85;;
70150;SDS011;57517;43.562;19.540;2024-01-30T14:11:35;41.17;;;33.75;;